sensor_id;sensor_type;location;lat;lon;timestamp;pressure;altitude;pressure_sealevel;temperature;humidity
41686;BME280;27370;42.764;23.432;2023-03-31T00:00:26;95550.78;;;4.11;100.00
41686;BME280;27370;42.764;23.432;2023-03-31T00:02:52;95554.22;;;4.08;100.00
41686;BME280;27370;42.764;23.432;2023-03-31T00:05:19;95548.78;;;4.05;100.00
41686;BME280;27370;42.764;23.432;2023-03-31T00:07:46;95545.81;;;4.10;100.00
41686;BME280;27370;42.764;23.432;2023-03-31T00:10:13;95558.88;;;4.15;100.00
41686;BME280;27370;42.764;23.432;2023-03-31T00:12:38;95557.81;;;4.23;100.00
41686;BME280;27370;42.764;23.432;2023-03-31T00:15:04;95544.56;;;4.04;100.00
41686;BME280;27370;42.764;23.432;2023-03-31T00:17:30;95530.16;;;4.15;100.00
41686;BME280;27370;42.764;23.432;2023-03-31T00:19:58;95540.19;;;4.22;100.00
41686;BME280;27370;42.764;23.432;2023-03-31T00:22:27;95539.84;;;4.27;100.00
41686;BME280;27370;42.764;23.432;2023-03-31T00:24:53;95529.91;;;4.27;100.00
41686;BME280;27370;42.764;23.432;2023-03-31T00:27:18;95541.84;;;4.34;100.00
41686;BME280;27370;42.764;23.432;2023-03-31T00:29:44;95544.22;;;4.42;100.00
41686;BME280;27370;42.764;23.432;2023-03-31T00:32:10;95549.66;;;4.49;100.00
41686;BME280;27370;42.764;23.432;2023-03-31T00:34:36;95538.25;;;4.56;100.00
41686;BME280;27370;42.764;23.432;2023-03-31T00:37:03;95540.31;;;4.33;100.00
41686;BME280;27370;42.764;23.432;2023-03-31T00:39:29;95523.91;;;4.41;100.00
41686;BME280;27370;42.764;23.432;2023-03-31T00:41:58;95527.13;;;4.54;100.00
41686;BME280;27370;42.764;23.432;2023-03-31T00:44:24;95535.63;;;4.63;100.00
41686;BME280;27370;42.764;23.432;2023-03-31T00:46:58;95528.50;;;4.78;100.00
41686;BME280;27370;42.764;23.432;2023-03-31T00:49:39;95525.06;;;4.81;100.00
41686;BME280;27370;42.764;23.432;2023-03-31T00:54:35;95518.38;;;5.08;100.00
41686;BME280;27370;42.764;23.432;2023-03-31T00:57:01;95518.03;;;5.17;100.00
41686;BME280;27370;42.764;23.432;2023-03-31T00:59:30;95523.81;;;5.19;100.00
41686;BME280;27370;42.764;23.432;2023-03-31T01:01:57;95509.31;;;5.31;100.00
41686;BME280;27370;42.764;23.432;2023-03-31T01:04:31;95509.28;;;5.23;100.00
41686;BME280;27370;42.764;23.432;2023-03-31T01:07:32;95515.09;;;5.33;100.00
41686;BME280;27370;42.764;23.432;2023-03-31T01:10:01;95508.47;;;5.19;100.00
41686;BME280;27370;42.764;23.432;2023-03-31T01:12:28;95499.75;;;5.33;100.00
41686;BME280;27370;42.764;23.432;2023-03-31T01:14:54;95514.38;;;5.43;100.00
41686;BME280;27370;42.764;23.432;2023-03-31T01:17:21;95517.03;;;5.36;100.00
41686;BME280;27370;42.764;23.432;2023-03-31T01:23:13;95515.47;;;5.35;100.00
41686;BME280;27370;42.764;23.432;2023-03-31T01:48:21;95524.66;;;5.99;100.00
41686;BME280;27370;42.764;23.432;2023-03-31T01:51:16;95526.22;;;6.04;100.00
41686;BME280;27370;42.764;23.432;2023-03-31T01:53:49;95536.63;;;6.12;100.00
41686;BME280;27370;42.764;23.432;2023-03-31T02:01:19;95522.38;;;6.08;100.00
41686;BME280;27370;42.764;23.432;2023-03-31T02:03:50;95537.44;;;6.24;100.00
41686;BME280;27370;42.764;23.432;2023-03-31T02:06:21;95531.66;;;6.25;100.00
41686;BME280;27370;42.764;23.432;2023-03-31T02:08:53;95534.28;;;6.04;100.00
41686;BME280;27370;42.764;23.432;2023-03-31T02:11:23;95538.09;;;5.99;100.00
41686;BME280;27370;42.764;23.432;2023-03-31T02:13:52;95543.13;;;6.04;100.00
41686;BME280;27370;42.764;23.432;2023-03-31T02:16:24;95546.19;;;6.10;100.00
41686;BME280;27370;42.764;23.432;2023-03-31T02:18:53;95546.19;;;6.06;100.00
41686;BME280;27370;42.764;23.432;2023-03-31T02:21:28;95545.44;;;6.09;100.00
41686;BME280;27370;42.764;23.432;2023-03-31T02:23:54;95546.19;;;6.03;100.00
41686;BME280;27370;42.764;23.432;2023-03-31T02:26:23;95566.13;;;5.98;100.00
41686;BME280;27370;42.764;23.432;2023-03-31T02:28:52;95563.41;;;5.91;100.00
41686;BME280;27370;42.764;23.432;2023-03-31T02:33:58;95569.97;;;6.01;100.00
41686;BME280;27370;42.764;23.432;2023-03-31T02:36:24;95570.38;;;6.06;100.00
41686;BME280;27370;42.764;23.432;2023-03-31T02:38:58;95579.59;;;6.05;100.00
41686;BME280;27370;42.764;23.432;2023-03-31T02:41:26;95578.09;;;6.11;100.00
41686;BME280;27370;42.764;23.432;2023-03-31T02:43:52;95576.59;;;6.25;100.00
41686;BME280;27370;42.764;23.432;2023-03-31T02:46:17;95572.78;;;6.26;100.00
41686;BME280;27370;42.764;23.432;2023-03-31T02:48:48;95567.00;;;6.17;100.00
41686;BME280;27370;42.764;23.432;2023-03-31T02:54:27;95576.97;;;6.12;100.00
41686;BME280;27370;42.764;23.432;2023-03-31T02:57:17;95575.47;;;6.29;100.00
41686;BME280;27370;42.764;23.432;2023-03-31T03:00:13;95566.69;;;6.36;100.00
41686;BME280;27370;42.764;23.432;2023-03-31T03:06:04;95558.22;;;6.34;100.00
41686;BME280;27370;42.764;23.432;2023-03-31T03:16:34;95533.53;;;6.10;100.00
41686;BME280;27370;42.764;23.432;2023-03-31T03:19:04;95525.84;;;6.05;100.00
41686;BME280;27370;42.764;23.432;2023-03-31T03:21:30;95525.84;;;6.09;100.00
41686;BME280;27370;42.764;23.432;2023-03-31T03:23:56;95522.38;;;6.08;100.00
41686;BME280;27370;42.764;23.432;2023-03-31T03:26:22;95512.00;;;6.03;100.00
41686;BME280;27370;42.764;23.432;2023-03-31T03:28:49;95512.06;;;6.14;100.00
41686;BME280;27370;42.764;23.432;2023-03-31T03:31:15;95513.59;;;6.15;100.00
41686;BME280;27370;42.764;23.432;2023-03-31T03:33:41;95529.34;;;6.20;100.00
41686;BME280;27370;42.764;23.432;2023-03-31T03:36:07;95530.91;;;6.28;100.00
41686;BME280;27370;42.764;23.432;2023-03-31T03:38:33;95526.28;;;6.25;100.00
41686;BME280;27370;42.764;23.432;2023-03-31T03:40:58;95521.31;;;6.31;100.00
41686;BME280;27370;42.764;23.432;2023-03-31T03:43:24;95510.91;;;6.19;100.00
41686;BME280;27370;42.764;23.432;2023-03-31T03:45:50;95517.38;;;6.00;100.00
41686;BME280;27370;42.764;23.432;2023-03-31T03:48:16;95503.56;;;6.08;100.00
41686;BME280;27370;42.764;23.432;2023-03-31T03:50:44;95510.09;;;6.04;100.00
41686;BME280;27370;42.764;23.432;2023-03-31T03:53:10;95502.09;;;6.14;100.00
41686;BME280;27370;42.764;23.432;2023-03-31T03:55:35;95505.09;;;6.02;100.00
41686;BME280;27370;42.764;23.432;2023-03-31T03:58:01;95494.75;;;6.08;100.00
41686;BME280;27370;42.764;23.432;2023-03-31T04:00:26;95501.63;;;5.98;100.00
41686;BME280;27370;42.764;23.432;2023-03-31T04:02:52;95499.78;;;6.17;100.00
41686;BME280;27370;42.764;23.432;2023-03-31T04:05:17;95506.31;;;6.16;100.00
41686;BME280;27370;42.764;23.432;2023-03-31T04:07:43;95508.25;;;6.26;100.00
41686;BME280;27370;42.764;23.432;2023-03-31T04:10:08;95502.91;;;6.54;100.00
41686;BME280;27370;42.764;23.432;2023-03-31T04:12:34;95507.56;;;6.61;100.00
41686;BME280;27370;42.764;23.432;2023-03-31T04:15:00;95507.16;;;6.73;100.00
41686;BME280;27370;42.764;23.432;2023-03-31T04:17:25;95499.09;;;6.73;100.00
41686;BME280;27370;42.764;23.432;2023-03-31T04:20:06;95507.56;;;7.00;100.00
41686;BME280;27370;42.764;23.432;2023-03-31T04:22:36;95505.25;;;6.91;100.00
41686;BME280;27370;42.764;23.432;2023-03-31T04:25:07;95512.94;;;7.21;100.00
41686;BME280;27370;42.764;23.432;2023-03-31T04:27:48;95508.34;;;7.29;100.00
41686;BME280;27370;42.764;23.432;2023-03-31T04:30:25;95505.22;;;7.48;100.00
41686;BME280;27370;42.764;23.432;2023-03-31T04:32:57;95499.81;;;7.55;100.00
41686;BME280;27370;42.764;23.432;2023-03-31T04:35:24;95480.97;;;7.45;100.00
41686;BME280;27370;42.764;23.432;2023-03-31T04:37:52;95496.31;;;7.62;100.00
41686;BME280;27370;42.764;23.432;2023-03-31T04:40:24;95498.63;;;7.60;100.00
41686;BME280;27370;42.764;23.432;2023-03-31T04:42:50;95478.66;;;7.47;100.00
41686;BME280;27370;42.764;23.432;2023-03-31T04:45:16;95481.00;;;7.37;100.00
41686;BME280;27370;42.764;23.432;2023-03-31T04:47:41;95487.50;;;7.44;100.00
41686;BME280;27370;42.764;23.432;2023-03-31T04:50:08;95505.16;;;7.73;100.00
41686;BME280;27370;42.764;23.432;2023-03-31T04:52:34;95500.88;;;7.86;100.00
41686;BME280;27370;42.764;23.432;2023-03-31T04:55:00;95507.44;;;7.82;100.00
41686;BME280;27370;42.764;23.432;2023-03-31T04:57:25;95495.91;;;7.74;100.00
41686;BME280;27370;42.764;23.432;2023-03-31T04:59:51;95510.91;;;7.79;100.00
41686;BME280;27370;42.764;23.432;2023-03-31T05:02:16;95503.63;;;7.72;100.00
41686;BME280;27370;42.764;23.432;2023-03-31T05:04:51;95505.59;;;7.54;100.00
41686;BME280;27370;42.764;23.432;2023-03-31T05:07:17;95514.06;;;7.49;100.00
41686;BME280;27370;42.764;23.432;2023-03-31T05:09:43;95505.59;;;7.43;100.00
41686;BME280;27370;42.764;23.432;2023-03-31T05:12:09;95481.78;;;7.27;100.00
41686;BME280;27370;42.764;23.432;2023-03-31T05:14:35;95481.03;;;7.27;100.00
41686;BME280;27370;42.764;23.432;2023-03-31T05:17:00;95479.09;;;7.31;100.00
41686;BME280;27370;42.764;23.432;2023-03-31T05:19:26;95478.69;;;7.32;100.00
41686;BME280;27370;42.764;23.432;2023-03-31T05:21:52;95481.34;;;7.43;100.00
41686;BME280;27370;42.764;23.432;2023-03-31T05:24:17;95477.13;;;7.42;100.00
41686;BME280;27370;42.764;23.432;2023-03-31T05:26:43;95484.44;;;7.49;100.00
41686;BME280;27370;42.764;23.432;2023-03-31T05:29:14;95482.47;;;7.63;100.00
41686;BME280;27370;42.764;23.432;2023-03-31T05:31:41;95473.88;;;7.90;100.00
41686;BME280;27370;42.764;23.432;2023-03-31T05:34:06;95481.91;;;8.15;100.00
41686;BME280;27370;42.764;23.432;2023-03-31T05:36:32;95474.28;;;7.95;100.00
41686;BME280;27370;42.764;23.432;2023-03-31T05:38:59;95472.69;;;8.05;100.00
41686;BME280;27370;42.764;23.432;2023-03-31T05:41:24;95480.66;;;8.34;100.00
41686;BME280;27370;42.764;23.432;2023-03-31T05:43:50;95471.09;;;8.18;100.00
41686;BME280;27370;42.764;23.432;2023-03-31T05:46:15;95471.06;;;8.22;100.00
41686;BME280;27370;42.764;23.432;2023-03-31T05:48:42;95478.78;;;8.20;100.00
41686;BME280;27370;42.764;23.432;2023-03-31T05:51:09;95472.94;;;8.28;100.00
41686;BME280;27370;42.764;23.432;2023-03-31T05:53:35;95482.47;;;8.51;100.00
41686;BME280;27370;42.764;23.432;2023-03-31T05:56:02;95476.94;;;8.72;100.00
41686;BME280;27370;42.764;23.432;2023-03-31T05:58:29;95489.34;;;8.63;100.00
41686;BME280;27370;42.764;23.432;2023-03-31T06:01:14;95487.59;;;8.90;100.00
41686;BME280;27370;42.764;23.432;2023-03-31T06:03:44;95484.94;;;9.31;100.00
41686;BME280;27370;42.764;23.432;2023-03-31T06:06:11;95495.22;;;9.43;100.00
41686;BME280;27370;42.764;23.432;2023-03-31T06:08:44;95473.22;;;9.45;100.00
41686;BME280;27370;42.764;23.432;2023-03-31T06:11:13;95488.09;;;9.64;100.00
41686;BME280;27370;42.764;23.432;2023-03-31T06:13:39;95483.81;;;9.66;100.00
41686;BME280;27370;42.764;23.432;2023-03-31T06:16:06;95474.41;;;9.78;100.00
41686;BME280;27370;42.764;23.432;2023-03-31T06:18:33;95491.31;;;9.86;100.00
41686;BME280;27370;42.764;23.432;2023-03-31T06:20:59;95493.56;;;9.91;100.00
41686;BME280;27370;42.764;23.432;2023-03-31T06:23:25;95488.69;;;9.78;100.00
41686;BME280;27370;42.764;23.432;2023-03-31T06:25:52;95486.19;;;9.95;100.00
41686;BME280;27370;42.764;23.432;2023-03-31T06:28:19;95476.63;;;9.87;100.00
41686;BME280;27370;42.764;23.432;2023-03-31T06:30:45;95483.16;;;9.89;100.00
41686;BME280;27370;42.764;23.432;2023-03-31T06:33:14;95474.84;;;9.73;100.00
41686;BME280;27370;42.764;23.432;2023-03-31T06:35:40;95472.78;;;9.84;100.00
41686;BME280;27370;42.764;23.432;2023-03-31T06:38:06;95477.63;;;10.00;100.00
41686;BME280;27370;42.764;23.432;2023-03-31T06:40:32;95475.81;;;9.90;100.00
41686;BME280;27370;42.764;23.432;2023-03-31T06:42:58;95469.47;;;10.03;100.00
41686;BME280;27370;42.764;23.432;2023-03-31T06:45:24;95468.66;;;10.06;100.00
41686;BME280;27370;42.764;23.432;2023-03-31T06:47:49;95486.84;;;10.36;100.00
41686;BME280;27370;42.764;23.432;2023-03-31T06:50:15;95477.38;;;10.52;100.00
41686;BME280;27370;42.764;23.432;2023-03-31T06:52:40;95489.47;;;10.70;100.00
41686;BME280;27370;42.764;23.432;2023-03-31T06:55:06;95482.28;;;11.11;100.00
41686;BME280;27370;42.764;23.432;2023-03-31T06:57:33;95462.13;;;11.35;100.00
41686;BME280;27370;42.764;23.432;2023-03-31T06:59:59;95458.13;;;11.63;100.00
41686;BME280;27370;42.764;23.432;2023-03-31T07:02:24;95462.38;;;11.64;100.00
41686;BME280;27370;42.764;23.432;2023-03-31T07:04:50;95442.59;;;11.44;100.00
41686;BME280;27370;42.764;23.432;2023-03-31T07:07:15;95447.44;;;11.95;100.00
41686;BME280;27370;42.764;23.432;2023-03-31T07:09:41;95434.47;;;12.23;100.00
41686;BME280;27370;42.764;23.432;2023-03-31T07:12:07;95422.16;;;12.71;100.00
41686;BME280;27370;42.764;23.432;2023-03-31T07:14:35;95417.03;;;13.05;100.00
41686;BME280;27370;42.764;23.432;2023-03-31T07:17:01;95408.72;;;12.96;100.00
41686;BME280;27370;42.764;23.432;2023-03-31T07:19:26;95415.50;;;12.88;100.00
41686;BME280;27370;42.764;23.432;2023-03-31T07:21:52;95407.00;;;13.02;100.00
41686;BME280;27370;42.764;23.432;2023-03-31T07:24:18;95411.34;;;13.00;100.00
41686;BME280;27370;42.764;23.432;2023-03-31T07:26:44;95416.44;;;12.49;100.00
41686;BME280;27370;42.764;23.432;2023-03-31T07:29:09;95407.53;;;12.12;100.00
41686;BME280;27370;42.764;23.432;2023-03-31T07:31:35;95410.47;;;12.38;100.00
41686;BME280;27370;42.764;23.432;2023-03-31T07:34:01;95411.53;;;12.93;100.00
41686;BME280;27370;42.764;23.432;2023-03-31T07:36:28;95414.00;;;13.48;100.00
41686;BME280;27370;42.764;23.432;2023-03-31T07:38:54;95423.22;;;13.67;100.00
41686;BME280;27370;42.764;23.432;2023-03-31T07:41:20;95415.44;;;13.95;100.00
41686;BME280;27370;42.764;23.432;2023-03-31T07:43:46;95414.16;;;13.99;100.00
41686;BME280;27370;42.764;23.432;2023-03-31T07:46:17;95401.88;;;14.20;100.00
41686;BME280;27370;42.764;23.432;2023-03-31T07:48:44;95408.97;;;14.30;100.00
41686;BME280;27370;42.764;23.432;2023-03-31T07:51:12;95404.28;;;14.31;100.00
41686;BME280;27370;42.764;23.432;2023-03-31T07:53:38;95409.41;;;14.41;100.00
41686;BME280;27370;42.764;23.432;2023-03-31T07:56:03;95401.66;;;14.15;100.00
41686;BME280;27370;42.764;23.432;2023-03-31T07:58:29;95399.66;;;14.02;100.00
41686;BME280;27370;42.764;23.432;2023-03-31T08:00:55;95413.63;;;14.17;100.00
41686;BME280;27370;42.764;23.432;2023-03-31T08:03:20;95403.25;;;13.58;100.00
41686;BME280;27370;42.764;23.432;2023-03-31T08:05:46;95404.06;;;13.71;100.00
41686;BME280;27370;42.764;23.432;2023-03-31T08:08:13;95391.53;;;14.28;100.00
41686;BME280;27370;42.764;23.432;2023-03-31T08:10:38;95386.97;;;14.76;100.00
41686;BME280;27370;42.764;23.432;2023-03-31T08:13:04;95381.47;;;15.01;100.00
41686;BME280;27370;42.764;23.432;2023-03-31T08:15:30;95379.56;;;15.11;100.00
41686;BME280;27370;42.764;23.432;2023-03-31T08:17:55;95372.94;;;15.33;100.00
41686;BME280;27370;42.764;23.432;2023-03-31T08:20:21;95383.06;;;15.46;92.68
41686;BME280;27370;42.764;23.432;2023-03-31T08:22:46;95372.59;;;15.44;91.27
41686;BME280;27370;42.764;23.432;2023-03-31T08:25:12;95369.38;;;15.58;97.61
41686;BME280;27370;42.764;23.432;2023-03-31T08:27:39;95376.81;;;15.80;87.17
41686;BME280;27370;42.764;23.432;2023-03-31T08:30:06;95379.41;;;15.83;92.54
41686;BME280;27370;42.764;23.432;2023-03-31T08:32:33;95372.75;;;15.84;94.10
41686;BME280;27370;42.764;23.432;2023-03-31T08:34:59;95381.50;;;15.23;99.68
41686;BME280;27370;42.764;23.432;2023-03-31T08:37:25;95369.44;;;15.46;89.09
41686;BME280;27370;42.764;23.432;2023-03-31T08:39:53;95378.16;;;15.19;92.77
41686;BME280;27370;42.764;23.432;2023-03-31T08:47:48;95385.09;;;14.22;100.00
41686;BME280;27370;42.764;23.432;2023-03-31T08:50:16;95363.28;;;13.96;100.00
41686;BME280;27370;42.764;23.432;2023-03-31T08:52:47;95368.97;;;14.15;98.02
41686;BME280;27370;42.764;23.432;2023-03-31T08:55:21;95329.53;;;13.94;96.53
41686;BME280;27370;42.764;23.432;2023-03-31T08:58:05;95347.75;;;14.09;100.00
41686;BME280;27370;42.764;23.432;2023-03-31T09:07:17;95327.94;;;16.04;94.13
41686;BME280;27370;42.764;23.432;2023-03-31T09:09:27;95319.38;;;16.23;84.87
41686;BME280;27370;42.764;23.432;2023-03-31T09:12:00;95334.22;;;16.53;91.45
41686;BME280;27370;42.764;23.432;2023-03-31T09:14:37;95326.88;;;16.50;85.61
41686;BME280;27370;42.764;23.432;2023-03-31T09:17:27;95338.09;;;16.93;94.91
41686;BME280;27370;42.764;23.432;2023-03-31T09:20:06;95329.75;;;17.33;86.12
41686;BME280;27370;42.764;23.432;2023-03-31T09:22:44;95339.22;;;17.23;83.85
41686;BME280;27370;42.764;23.432;2023-03-31T09:25:40;95338.72;;;17.42;83.12
41686;BME280;27370;42.764;23.432;2023-03-31T09:28:17;95329.88;;;17.93;80.95
41686;BME280;27370;42.764;23.432;2023-03-31T09:30:46;95332.66;;;17.75;77.35
41686;BME280;27370;42.764;23.432;2023-03-31T09:33:29;95325.66;;;17.19;78.35
41686;BME280;27370;42.764;23.432;2023-03-31T09:35:58;95324.09;;;16.72;78.40
41686;BME280;27370;42.764;23.432;2023-03-31T09:38:24;95319.06;;;16.71;83.01
41686;BME280;27370;42.764;23.432;2023-03-31T09:40:58;95300.34;;;16.60;82.16
41686;BME280;27370;42.764;23.432;2023-03-31T09:43:26;95317.16;;;16.40;79.10
41686;BME280;27370;42.764;23.432;2023-03-31T09:45:53;95307.88;;;16.38;90.53
41686;BME280;27370;42.764;23.432;2023-03-31T09:48:21;95310.38;;;16.63;89.10
41686;BME280;27370;42.764;23.432;2023-03-31T09:50:51;95297.06;;;16.74;82.65
41686;BME280;27370;42.764;23.432;2023-03-31T09:53:30;95295.13;;;17.21;82.95
41686;BME280;27370;42.764;23.432;2023-03-31T09:56:01;95295.09;;;17.48;80.68
41686;BME280;27370;42.764;23.432;2023-03-31T09:58:28;95285.19;;;17.51;77.20
41686;BME280;27370;42.764;23.432;2023-03-31T10:01:01;95281.59;;;17.26;72.27
41686;BME280;27370;42.764;23.432;2023-03-31T10:03:28;95278.53;;;17.15;75.11
41686;BME280;27370;42.764;23.432;2023-03-31T10:05:56;95284.31;;;17.44;74.99
41686;BME280;27370;42.764;23.432;2023-03-31T10:08:41;95264.63;;;17.73;74.70
41686;BME280;27370;42.764;23.432;2023-03-31T10:11:10;95276.03;;;17.81;71.19
41686;BME280;27370;42.764;23.432;2023-03-31T10:14:10;95266.28;;;17.80;69.36
41686;BME280;27370;42.764;23.432;2023-03-31T10:16:55;95278.97;;;17.41;72.29
41686;BME280;27370;42.764;23.432;2023-03-31T10:19:28;95274.72;;;17.40;76.13
41686;BME280;27370;42.764;23.432;2023-03-31T10:21:56;95271.94;;;17.77;74.60
41686;BME280;27370;42.764;23.432;2023-03-31T10:24:23;95275.25;;;17.90;71.04
41686;BME280;27370;42.764;23.432;2023-03-31T10:26:51;95256.56;;;17.79;72.87
41686;BME280;27370;42.764;23.432;2023-03-31T10:29:29;95254.88;;;17.82;63.60
41686;BME280;27370;42.764;23.432;2023-03-31T10:32:07;95256.50;;;17.28;68.12
41686;BME280;27370;42.764;23.432;2023-03-31T10:34:35;95248.41;;;17.33;73.24
41686;BME280;27370;42.764;23.432;2023-03-31T10:37:04;95255.81;;;17.60;70.03
41686;BME280;27370;42.764;23.432;2023-03-31T10:39:31;95243.69;;;17.52;75.93
41686;BME280;27370;42.764;23.432;2023-03-31T10:41:59;95245.06;;;17.38;70.87
41686;BME280;27370;42.764;23.432;2023-03-31T10:44:34;95230.44;;;17.69;71.21
41686;BME280;27370;42.764;23.432;2023-03-31T10:47:15;95237.81;;;17.87;65.33
41686;BME280;27370;42.764;23.432;2023-03-31T10:49:43;95240.34;;;17.48;64.82
41686;BME280;27370;42.764;23.432;2023-03-31T10:52:25;95233.09;;;17.08;75.53
41686;BME280;27370;42.764;23.432;2023-03-31T10:54:59;95228.50;;;17.33;78.43
41686;BME280;27370;42.764;23.432;2023-03-31T10:57:42;95232.88;;;17.49;65.33
41686;BME280;27370;42.764;23.432;2023-03-31T11:14:10;95204.41;;;17.73;71.70
41686;BME280;27370;42.764;23.432;2023-03-31T11:17:11;95206.28;;;17.49;65.33
41686;BME280;27370;42.764;23.432;2023-03-31T11:20:06;95208.34;;;17.03;67.36
41686;BME280;27370;42.764;23.432;2023-03-31T11:22:46;95200.00;;;16.88;71.10
41686;BME280;27370;42.764;23.432;2023-03-31T11:25:51;95200.31;;;16.81;74.43
41686;BME280;27370;42.764;23.432;2023-03-31T11:28:33;95193.00;;;16.60;70.97
41686;BME280;27370;42.764;23.432;2023-03-31T11:34:39;95196.16;;;16.40;76.02
41686;BME280;27370;42.764;23.432;2023-03-31T11:42:14;95176.81;;;15.98;80.36
41686;BME280;27370;42.764;23.432;2023-03-31T11:44:49;95175.06;;;16.40;78.14
41686;BME280;27370;42.764;23.432;2023-03-31T11:47:20;95168.53;;;16.93;74.11
41686;BME280;27370;42.764;23.432;2023-03-31T11:49:53;95168.09;;;16.85;69.48
41686;BME280;27370;42.764;23.432;2023-03-31T11:52:29;95175.41;;;16.79;73.98
41686;BME280;27370;42.764;23.432;2023-03-31T11:55:00;95166.41;;;16.51;73.87
41686;BME280;27370;42.764;23.432;2023-03-31T12:00:16;95158.34;;;16.66;77.75
41686;BME280;27370;42.764;23.432;2023-03-31T12:03:05;95151.53;;;16.79;81.27
41686;BME280;27370;42.764;23.432;2023-03-31T12:05:37;95145.56;;;17.08;77.24
41686;BME280;27370;42.764;23.432;2023-03-31T12:10:42;95136.88;;;17.70;67.62
41686;BME280;27370;42.764;23.432;2023-03-31T12:16:03;95130.19;;;18.19;65.06
41686;BME280;27370;42.764;23.432;2023-03-31T12:18:39;95124.81;;;18.25;62.27
41686;BME280;27370;42.764;23.432;2023-03-31T12:21:08;95125.28;;;18.23;64.89
41686;BME280;27370;42.764;23.432;2023-03-31T12:23:40;95122.38;;;18.03;66.07
41686;BME280;27370;42.764;23.432;2023-03-31T12:26:16;95116.81;;;17.55;68.61
41686;BME280;27370;42.764;23.432;2023-03-31T12:28:47;95120.91;;;17.93;64.61
41686;BME280;27370;42.764;23.432;2023-03-31T12:31:19;95114.59;;;17.78;64.67
41686;BME280;27370;42.764;23.432;2023-03-31T12:34:02;95105.94;;;17.79;71.02
41686;BME280;27370;42.764;23.432;2023-03-31T12:39:24;95106.31;;;18.88;66.72
41686;BME280;27370;42.764;23.432;2023-03-31T12:44:28;95091.56;;;19.15;54.46
41686;BME280;27370;42.764;23.432;2023-03-31T12:55:37;95074.78;;;17.01;62.84
41686;BME280;27370;42.764;23.432;2023-03-31T13:01:35;95061.41;;;17.03;67.83
41686;BME280;27370;42.764;23.432;2023-03-31T13:04:24;95051.97;;;17.04;65.38
41686;BME280;27370;42.764;23.432;2023-03-31T13:06:56;95044.41;;;16.90;76.26
41686;BME280;27370;42.764;23.432;2023-03-31T13:11:55;95026.47;;;16.98;70.94
41686;BME280;27370;42.764;23.432;2023-03-31T13:14:51;95026.59;;;17.04;72.65
41686;BME280;27370;42.764;23.432;2023-03-31T13:17:24;95021.28;;;17.00;70.43
41686;BME280;27370;42.764;23.432;2023-03-31T13:19:52;95007.00;;;16.96;66.78
41686;BME280;27370;42.764;23.432;2023-03-31T13:22:32;95000.50;;;17.27;67.97
41686;BME280;27370;42.764;23.432;2023-03-31T14:06:05;94925.88;;;16.60;66.38
41686;BME280;27370;42.764;23.432;2023-03-31T14:08:55;94930.00;;;16.46;65.03
41686;BME280;27370;42.764;23.432;2023-03-31T14:11:26;94925.88;;;16.51;68.35
41686;BME280;27370;42.764;23.432;2023-03-31T14:14:11;94924.47;;;16.65;73.87
41686;BME280;27370;42.764;23.432;2023-03-31T14:16:43;94916.59;;;16.67;73.87
41686;BME280;27370;42.764;23.432;2023-03-31T14:35:56;94913.72;;;16.94;64.55
41686;BME280;27370;42.764;23.432;2023-03-31T14:38:26;94892.50;;;16.89;62.23
41686;BME280;27370;42.764;23.432;2023-03-31T14:40:53;94898.69;;;16.99;65.84
41686;BME280;27370;42.764;23.432;2023-03-31T14:43:33;94890.28;;;17.02;67.01
41686;BME280;27370;42.764;23.432;2023-03-31T14:46:07;94886.53;;;17.00;67.09
41686;BME280;27370;42.764;23.432;2023-03-31T14:48:40;94887.00;;;16.98;69.26
41686;BME280;27370;42.764;23.432;2023-03-31T14:51:10;94878.25;;;16.85;66.53
41686;BME280;27370;42.764;23.432;2023-03-31T14:53:35;94875.16;;;16.92;65.67
41686;BME280;27370;42.764;23.432;2023-03-31T14:56:05;94887.09;;;16.80;64.90
41686;BME280;27370;42.764;23.432;2023-03-31T14:58:35;94879.81;;;16.77;71.70
41686;BME280;27370;42.764;23.432;2023-03-31T15:01:03;94868.75;;;16.95;67.88
41686;BME280;27370;42.764;23.432;2023-03-31T15:03:32;94872.88;;;16.91;64.63
41686;BME280;27370;42.764;23.432;2023-03-31T15:05:59;94852.47;;;16.77;64.25
41686;BME280;27370;42.764;23.432;2023-03-31T15:08:26;94864.22;;;16.92;65.33
41686;BME280;27370;42.764;23.432;2023-03-31T15:10:56;94851.75;;;16.67;67.17
41686;BME280;27370;42.764;23.432;2023-03-31T15:13:32;94859.59;;;16.74;70.01
41686;BME280;27370;42.764;23.432;2023-03-31T15:15:59;94857.06;;;16.62;74.98
41686;BME280;27370;42.764;23.432;2023-03-31T15:18:26;94869.81;;;16.65;68.66
41686;BME280;27370;42.764;23.432;2023-03-31T15:20:51;94867.22;;;16.70;62.37
41686;BME280;27370;42.764;23.432;2023-03-31T15:23:27;94860.81;;;16.73;67.06
41686;BME280;27370;42.764;23.432;2023-03-31T15:28:21;94858.59;;;16.63;67.55
41686;BME280;27370;42.764;23.432;2023-03-31T15:30:49;94854.78;;;16.69;65.93
41686;BME280;27370;42.764;23.432;2023-03-31T15:33:28;94859.50;;;16.60;69.18
41686;BME280;27370;42.764;23.432;2023-03-31T15:35:55;94859.22;;;16.58;68.33
41686;BME280;27370;42.764;23.432;2023-03-31T15:38:24;94856.50;;;16.58;65.21
41686;BME280;27370;42.764;23.432;2023-03-31T15:40:55;94850.25;;;16.66;63.19
41686;BME280;27370;42.764;23.432;2023-03-31T15:43:31;94853.28;;;16.59;63.30
41686;BME280;27370;42.764;23.432;2023-03-31T15:45:58;94854.50;;;16.58;62.71
41686;BME280;27370;42.764;23.432;2023-03-31T15:48:34;94846.13;;;16.62;62.84
41686;BME280;27370;42.764;23.432;2023-03-31T15:53:36;94854.72;;;16.45;67.17
41686;BME280;27370;42.764;23.432;2023-03-31T15:56:03;94854.13;;;16.41;69.14
41686;BME280;27370;42.764;23.432;2023-03-31T16:01:21;94845.38;;;16.28;62.99